sensor_id;sensor_type;location;lat;lon;timestamp;pressure;altitude;pressure_sealevel;temperature;humidity
75008;BME280;63554;48.940;12.050;2023-07-20T00:00:00;97038.59;;;18.81;67.20
75008;BME280;63554;48.940;12.050;2023-07-20T00:04:03;97031.19;;;18.87;66.62
75008;BME280;63554;48.940;12.050;2023-07-20T00:08:06;97044.38;;;18.80;66.67
75008;BME280;63554;48.940;12.050;2023-07-20T00:12:10;97041.63;;;18.80;68.03
75008;BME280;63554;48.940;12.050;2023-07-20T00:16:13;97044.69;;;19.23;67.21
75008;BME280;63554;48.940;12.050;2023-07-20T00:20:16;97038.66;;;19.26;65.40
75008;BME280;63554;48.940;12.050;2023-07-20T00:24:19;97046.25;;;18.89;67.09
75008;BME280;63554;48.940;12.050;2023-07-20T00:28:23;97051.53;;;18.60;68.10
75008;BME280;63554;48.940;12.050;2023-07-20T00:32:26;97050.41;;;18.71;68.33
75008;BME280;63554;48.940;12.050;2023-07-20T00:36:29;97036.72;;;18.66;67.96
75008;BME280;63554;48.940;12.050;2023-07-20T00:40:35;97028.81;;;18.49;69.26
75008;BME280;63554;48.940;12.050;2023-07-20T00:44:39;97035.94;;;18.55;68.88
75008;BME280;63554;48.940;12.050;2023-07-20T00:48:42;97040.81;;;18.74;68.45
75008;BME280;63554;48.940;12.050;2023-07-20T00:52:45;97047.13;;;18.74;68.59
75008;BME280;63554;48.940;12.050;2023-07-20T00:56:48;97039.41;;;18.82;68.28
75008;BME280;63554;48.940;12.050;2023-07-20T01:00:54;97045.97;;;18.91;68.59
75008;BME280;63554;48.940;12.050;2023-07-20T01:04:57;97052.78;;;19.04;67.90
75008;BME280;63554;48.940;12.050;2023-07-20T01:09:06;97048.63;;;19.06;67.89
75008;BME280;63554;48.940;12.050;2023-07-20T01:13:13;97033.34;;;18.95;67.73
75008;BME280;63554;48.940;12.050;2023-07-20T01:17:18;97040.53;;;18.86;67.67
75008;BME280;63554;48.940;12.050;2023-07-20T01:21:24;97032.34;;;18.60;68.64
75008;BME280;63554;48.940;12.050;2023-07-20T01:25:45;97032.66;;;18.53;70.09
75008;BME280;63554;48.940;12.050;2023-07-20T01:30:08;97036.75;;;18.61;69.50
75008;BME280;63554;48.940;12.050;2023-07-20T01:34:17;97043.91;;;18.36;70.11
75008;BME280;63554;48.940;12.050;2023-07-20T01:38:21;97030.53;;;18.35;70.94
75008;BME280;63554;48.940;12.050;2023-07-20T01:42:26;97030.50;;;18.45;69.91
75008;BME280;63554;48.940;12.050;2023-07-20T01:46:28;97040.88;;;18.48;70.00
75008;BME280;63554;48.940;12.050;2023-07-20T01:50:33;97038.13;;;18.48;69.31
75008;BME280;63554;48.940;12.050;2023-07-20T01:54:36;97033.81;;;18.27;70.94
75008;BME280;63554;48.940;12.050;2023-07-20T01:58:38;97045.03;;;18.35;70.65
75008;BME280;63554;48.940;12.050;2023-07-20T02:02:41;97044.28;;;18.09;70.68
75008;BME280;63554;48.940;12.050;2023-07-20T02:06:46;97061.22;;;17.70;72.92
75008;BME280;63554;48.940;12.050;2023-07-20T02:10:49;97049.16;;;17.41;74.82
75008;BME280;63554;48.940;12.050;2023-07-20T02:14:52;97046.66;;;17.24;75.24
75008;BME280;63554;48.940;12.050;2023-07-20T02:18:54;97046.06;;;17.16;75.36
75008;BME280;63554;48.940;12.050;2023-07-20T02:22:59;97048.50;;;17.03;75.76
75008;BME280;63554;48.940;12.050;2023-07-20T02:27:02;97056.63;;;16.82;77.09
75008;BME280;63554;48.940;12.050;2023-07-20T02:31:05;97040.72;;;16.79;77.32
75008;BME280;63554;48.940;12.050;2023-07-20T02:35:08;97049.16;;;16.67;78.05
75008;BME280;63554;48.940;12.050;2023-07-20T02:39:12;97052.59;;;17.00;77.28
75008;BME280;63554;48.940;12.050;2023-07-20T02:43:14;97060.81;;;17.10;76.57
75008;BME280;63554;48.940;12.050;2023-07-20T02:47:17;97067.59;;;16.92;76.80
75008;BME280;63554;48.940;12.050;2023-07-20T02:51:20;97072.47;;;16.80;78.02
75008;BME280;63554;48.940;12.050;2023-07-20T02:55:24;97058.28;;;16.83;77.31
75008;BME280;63554;48.940;12.050;2023-07-20T02:59:27;97061.56;;;16.85;77.46
75008;BME280;63554;48.940;12.050;2023-07-20T03:03:30;97062.09;;;16.87;76.62
75008;BME280;63554;48.940;12.050;2023-07-20T03:07:33;97070.75;;;16.69;77.00
75008;BME280;63554;48.940;12.050;2023-07-20T03:11:37;97057.91;;;16.69;77.85
75008;BME280;63554;48.940;12.050;2023-07-20T03:15:40;97068.31;;;16.77;76.95
75008;BME280;63554;48.940;12.050;2023-07-20T03:19:43;97074.03;;;16.71;77.42
75008;BME280;63554;48.940;12.050;2023-07-20T03:23:46;97074.34;;;16.74;77.23
75008;BME280;63554;48.940;12.050;2023-07-20T03:27:50;97071.31;;;16.71;77.54
75008;BME280;63554;48.940;12.050;2023-07-20T03:31:53;97063.47;;;16.85;77.17
75008;BME280;63554;48.940;12.050;2023-07-20T03:35:56;97064.66;;;17.09;76.30
75008;BME280;63554;48.940;12.050;2023-07-20T03:39:59;97062.97;;;16.98;76.54
75008;BME280;63554;48.940;12.050;2023-07-20T03:44:03;97086.38;;;16.78;77.65
75008;BME280;63554;48.940;12.050;2023-07-20T03:48:06;97086.81;;;16.60;78.34
75008;BME280;63554;48.940;12.050;2023-07-20T03:52:09;97087.31;;;16.52;78.81
75008;BME280;63554;48.940;12.050;2023-07-20T03:56:11;97082.66;;;16.52;79.19
75008;BME280;63554;48.940;12.050;2023-07-20T04:00:16;97087.31;;;16.52;79.18
75008;BME280;63554;48.940;12.050;2023-07-20T04:04:19;97093.53;;;16.42;79.70
75008;BME280;63554;48.940;12.050;2023-07-20T04:08:22;97094.91;;;16.39;79.34
75008;BME280;63554;48.940;12.050;2023-07-20T04:12:25;97092.19;;;16.39;78.77
75008;BME280;63554;48.940;12.050;2023-07-20T04:16:29;97093.59;;;16.47;78.52
75008;BME280;63554;48.940;12.050;2023-07-20T04:20:32;97099.59;;;16.49;78.29
75008;BME280;63554;48.940;12.050;2023-07-20T04:24:35;97106.44;;;16.52;78.54
75008;BME280;63554;48.940;12.050;2023-07-20T04:28:38;97106.19;;;16.53;78.06
75008;BME280;63554;48.940;12.050;2023-07-20T04:32:45;97110.28;;;16.56;78.45
75008;BME280;63554;48.940;12.050;2023-07-20T04:36:48;97113.31;;;16.54;77.96
75008;BME280;63554;48.940;12.050;2023-07-20T04:40:51;97108.63;;;16.50;78.51
75008;BME280;63554;48.940;12.050;2023-07-20T04:44:53;97115.19;;;16.54;78.24
75008;BME280;63554;48.940;12.050;2023-07-20T04:48:57;97111.91;;;16.52;78.04
75008;BME280;63554;48.940;12.050;2023-07-20T04:53:00;97112.75;;;16.57;77.40
75008;BME280;63554;48.940;12.050;2023-07-20T04:57:10;97121.81;;;16.63;76.76
75008;BME280;63554;48.940;12.050;2023-07-20T05:01:12;97124.59;;;16.68;76.11
75008;BME280;63554;48.940;12.050;2023-07-20T05:05:16;97130.09;;;16.78;75.46
75008;BME280;63554;48.940;12.050;2023-07-20T05:09:19;97129.59;;;16.82;74.58
75008;BME280;63554;48.940;12.050;2023-07-20T05:13:22;97125.28;;;16.86;73.88
75008;BME280;63554;48.940;12.050;2023-07-20T05:17:25;97129.66;;;16.92;72.96
75008;BME280;63554;48.940;12.050;2023-07-20T05:21:29;97129.16;;;17.00;72.83
75008;BME280;63554;48.940;12.050;2023-07-20T05:25:31;97130.00;;;17.06;72.15
75008;BME280;63554;48.940;12.050;2023-07-20T05:29:34;97133.28;;;17.08;72.43
75008;BME280;63554;48.940;12.050;2023-07-20T05:33:37;97133.59;;;17.11;71.00
75008;BME280;63554;48.940;12.050;2023-07-20T05:37:41;97142.91;;;17.20;70.22
75008;BME280;63554;48.940;12.050;2023-07-20T05:41:44;97135.81;;;17.30;69.93
75008;BME280;63554;48.940;12.050;2023-07-20T05:45:46;97149.53;;;17.35;69.61
75008;BME280;63554;48.940;12.050;2023-07-20T05:49:49;97149.25;;;17.36;69.93
75008;BME280;63554;48.940;12.050;2023-07-20T05:53:54;97150.09;;;17.42;69.72
75008;BME280;63554;48.940;12.050;2023-07-20T05:57:56;97156.44;;;17.53;68.39
75008;BME280;63554;48.940;12.050;2023-07-20T06:01:59;97150.16;;;17.63;68.39
75008;BME280;63554;48.940;12.050;2023-07-20T06:06:02;97148.50;;;17.62;68.39
75008;BME280;63554;48.940;12.050;2023-07-20T06:10:08;97153.44;;;17.65;68.55
75008;BME280;63554;48.940;12.050;2023-07-20T06:14:11;97162.22;;;17.77;68.80
75008;BME280;63554;48.940;12.050;2023-07-20T06:18:14;97164.13;;;17.82;69.39
75008;BME280;63554;48.940;12.050;2023-07-20T06:22:17;97166.38;;;17.85;69.73
75008;BME280;63554;48.940;12.050;2023-07-20T06:26:21;97177.59;;;17.88;70.15
75008;BME280;63554;48.940;12.050;2023-07-20T06:30:24;97177.06;;;17.86;70.52
75008;BME280;63554;48.940;12.050;2023-07-20T06:34:27;97181.72;;;17.91;70.24
75008;BME280;63554;48.940;12.050;2023-07-20T06:38:30;97173.50;;;17.86;70.72
75008;BME280;63554;48.940;12.050;2023-07-20T06:42:35;97163.94;;;17.98;69.00
75008;BME280;63554;48.940;12.050;2023-07-20T06:46:41;97171.63;;;18.37;68.44
75008;BME280;63554;48.940;12.050;2023-07-20T06:50:43;97170.25;;;18.50;68.12
75008;BME280;63554;48.940;12.050;2023-07-20T06:54:46;97167.50;;;18.30;67.05
75008;BME280;63554;48.940;12.050;2023-07-20T06:58:55;97166.69;;;18.24;66.94
75008;BME280;63554;48.940;12.050;2023-07-20T07:02:58;97161.75;;;18.42;66.28
75008;BME280;63554;48.940;12.050;2023-07-20T07:07:02;97164.47;;;18.57;62.23
75008;BME280;63554;48.940;12.050;2023-07-20T07:11:06;97160.34;;;18.95;62.20
75008;BME280;63554;48.940;12.050;2023-07-20T07:15:11;97165.19;;;19.14;60.58
75008;BME280;63554;48.940;12.050;2023-07-20T07:19:14;97169.44;;;19.46;59.42
75008;BME280;63554;48.940;12.050;2023-07-20T07:23:16;97162.81;;;19.57;59.31
75008;BME280;63554;48.940;12.050;2023-07-20T07:27:19;97174.06;;;19.61;58.89
75008;BME280;63554;48.940;12.050;2023-07-20T07:31:24;97172.72;;;19.48;58.44
75008;BME280;63554;48.940;12.050;2023-07-20T07:35:27;97174.53;;;19.68;58.17
75008;BME280;63554;48.940;12.050;2023-07-20T07:39:30;97179.06;;;20.03;57.16
75008;BME280;63554;48.940;12.050;2023-07-20T07:43:36;97180.59;;;20.20;55.97
75008;BME280;63554;48.940;12.050;2023-07-20T07:47:41;97181.44;;;20.15;56.24
75008;BME280;63554;48.940;12.050;2023-07-20T07:51:44;97185.47;;;19.88;55.83
75008;BME280;63554;48.940;12.050;2023-07-20T07:55:47;97181.03;;;20.32;55.01
75008;BME280;63554;48.940;12.050;2023-07-20T07:59:50;97189.63;;;20.25;54.67
75008;BME280;63554;48.940;12.050;2023-07-20T08:03:54;97192.19;;;20.11;54.57
75008;BME280;63554;48.940;12.050;2023-07-20T08:07:58;97192.84;;;19.93;55.30
75008;BME280;63554;48.940;12.050;2023-07-20T08:12:01;97186.75;;;20.01;54.88
75008;BME280;63554;48.940;12.050;2023-07-20T08:16:05;97186.22;;;20.39;53.50
75008;BME280;63554;48.940;12.050;2023-07-20T08:20:10;97181.06;;;20.66;52.37
75008;BME280;63554;48.940;12.050;2023-07-20T08:24:13;97200.00;;;20.28;53.37
75008;BME280;63554;48.940;12.050;2023-07-20T08:28:16;97191.84;;;20.18;54.04
75008;BME280;63554;48.940;12.050;2023-07-20T08:32:19;97193.50;;;20.19;53.27
75008;BME280;63554;48.940;12.050;2023-07-20T08:36:23;97198.16;;;20.58;52.45
75008;BME280;63554;48.940;12.050;2023-07-20T08:40:26;97207.03;;;20.79;51.19
75008;BME280;63554;48.940;12.050;2023-07-20T08:44:29;97198.84;;;21.03;48.19
75008;BME280;63554;48.940;12.050;2023-07-20T08:48:34;97195.00;;;20.99;48.86
75008;BME280;63554;48.940;12.050;2023-07-20T08:52:38;97195.06;;;21.23;47.13
75008;BME280;63554;48.940;12.050;2023-07-20T08:56:42;97191.53;;;21.18;47.29
75008;BME280;63554;48.940;12.050;2023-07-20T09:00:47;97186.56;;;21.44;47.23
75008;BME280;63554;48.940;12.050;2023-07-20T09:04:52;97180.22;;;21.86;45.35
75008;BME280;63554;48.940;12.050;2023-07-20T09:08:56;97179.50;;;22.00;45.38
75008;BME280;63554;48.940;12.050;2023-07-20T09:13:02;97173.59;;;21.87;45.38
75008;BME280;63554;48.940;12.050;2023-07-20T09:17:05;97175.75;;;21.90;43.85
75008;BME280;63554;48.940;12.050;2023-07-20T09:21:08;97166.50;;;21.81;43.23
75008;BME280;63554;48.940;12.050;2023-07-20T09:25:13;97167.34;;;22.20;44.35
75008;BME280;63554;48.940;12.050;2023-07-20T09:29:18;97160.66;;;22.26;44.79
75008;BME280;63554;48.940;12.050;2023-07-20T09:33:21;97153.50;;;22.25;43.88
75008;BME280;63554;48.940;12.050;2023-07-20T09:37:33;97159.16;;;22.66;43.48
75008;BME280;63554;48.940;12.050;2023-07-20T09:41:43;97159.97;;;22.15;42.52
75008;BME280;63554;48.940;12.050;2023-07-20T09:45:47;97155.28;;;22.16;41.44
75008;BME280;63554;48.940;12.050;2023-07-20T09:49:58;97148.84;;;22.72;40.97
75008;BME280;63554;48.940;12.050;2023-07-20T09:54:04;97157.13;;;22.39;40.86
75008;BME280;63554;48.940;12.050;2023-07-20T09:58:09;97160.78;;;22.16;40.58
75008;BME280;63554;48.940;12.050;2023-07-20T10:02:19;97152.84;;;22.80;39.56
75008;BME280;63554;48.940;12.050;2023-07-20T10:06:24;97154.88;;;22.74;39.34
75008;BME280;63554;48.940;12.050;2023-07-20T10:10:27;97150.00;;;22.52;41.10
75008;BME280;63554;48.940;12.050;2023-07-20T10:14:32;97149.13;;;23.03;40.86
75008;BME280;63554;48.940;12.050;2023-07-20T10:18:41;97153.91;;;23.39;39.29
75008;BME280;63554;48.940;12.050;2023-07-20T10:22:47;97150.78;;;22.85;40.94
75008;BME280;63554;48.940;12.050;2023-07-20T10:26:51;97149.38;;;23.02;40.39
75008;BME280;63554;48.940;12.050;2023-07-20T10:30:55;97151.22;;;23.48;40.12
75008;BME280;63554;48.940;12.050;2023-07-20T10:34:58;97138.97;;;23.26;37.83
75008;BME280;63554;48.940;12.050;2023-07-20T10:39:01;97138.78;;;23.23;39.22
75008;BME280;63554;48.940;12.050;2023-07-20T10:43:05;97142.97;;;23.06;39.01
75008;BME280;63554;48.940;12.050;2023-07-20T10:47:11;97141.50;;;23.64;38.28
75008;BME280;63554;48.940;12.050;2023-07-20T10:51:21;97138.22;;;23.76;36.65
75008;BME280;63554;48.940;12.050;2023-07-20T10:55:25;97128.19;;;22.69;37.73
75008;BME280;63554;48.940;12.050;2023-07-20T10:59:37;97122.50;;;22.94;36.68
75008;BME280;63554;48.940;12.050;2023-07-20T11:03:41;97128.69;;;23.68;34.54
75008;BME280;63554;48.940;12.050;2023-07-20T11:07:48;97116.16;;;24.21;33.99
75008;BME280;63554;48.940;12.050;2023-07-20T11:12:08;97114.88;;;24.50;32.75
75008;BME280;63554;48.940;12.050;2023-07-20T11:16:11;97118.88;;;23.76;34.91
75008;BME280;63554;48.940;12.050;2023-07-20T11:20:15;97112.09;;;23.18;34.94
75008;BME280;63554;48.940;12.050;2023-07-20T11:24:21;97117.91;;;23.30;34.98
75008;BME280;63554;48.940;12.050;2023-07-20T11:28:24;97124.19;;;23.73;33.43
75008;BME280;63554;48.940;12.050;2023-07-20T11:32:27;97114.06;;;24.04;33.32
75008;BME280;63554;48.940;12.050;2023-07-20T11:36:31;97095.50;;;24.73;32.30
75008;BME280;63554;48.940;12.050;2023-07-20T11:40:42;97093.06;;;25.20;31.67
75008;BME280;63554;48.940;12.050;2023-07-20T11:44:45;97098.81;;;24.30;34.13
75008;BME280;63554;48.940;12.050;2023-07-20T11:48:48;97100.88;;;23.65;34.35
75008;BME280;63554;48.940;12.050;2023-07-20T11:52:52;97087.22;;;24.50;33.51
75008;BME280;63554;48.940;12.050;2023-07-20T11:56:55;97086.63;;;24.53;33.34
75008;BME280;63554;48.940;12.050;2023-07-20T12:00:58;97064.84;;;25.67;30.49
75008;BME280;63554;48.940;12.050;2023-07-20T12:05:02;97067.75;;;25.53;30.55
75008;BME280;63554;48.940;12.050;2023-07-20T12:09:14;97070.56;;;25.88;30.35
75008;BME280;63554;48.940;12.050;2023-07-20T12:13:17;97064.44;;;25.24;30.04
75008;BME280;63554;48.940;12.050;2023-07-20T12:17:19;97053.25;;;25.82;30.65
75008;BME280;63554;48.940;12.050;2023-07-20T12:21:22;97051.22;;;25.21;32.41
75008;BME280;63554;48.940;12.050;2023-07-20T12:25:36;97049.34;;;24.91;32.72
75008;BME280;63554;48.940;12.050;2023-07-20T12:29:39;97045.25;;;25.45;31.85
75008;BME280;63554;48.940;12.050;2023-07-20T12:33:42;97044.41;;;24.79;31.58
75008;BME280;63554;48.940;12.050;2023-07-20T12:37:45;97039.91;;;24.29;33.09
75008;BME280;63554;48.940;12.050;2023-07-20T12:41:51;97035.41;;;24.64;32.17
75008;BME280;63554;48.940;12.050;2023-07-20T12:45:54;97020.09;;;24.67;32.24
75008;BME280;63554;48.940;12.050;2023-07-20T12:49:57;97036.41;;;24.69;32.01
75008;BME280;63554;48.940;12.050;2023-07-20T12:54:00;97041.84;;;25.49;30.40
75008;BME280;63554;48.940;12.050;2023-07-20T12:58:04;97028.31;;;26.08;28.72
75008;BME280;63554;48.940;12.050;2023-07-20T13:02:06;97036.63;;;25.91;28.75
75008;BME280;63554;48.940;12.050;2023-07-20T13:06:09;97017.84;;;25.44;29.41
75008;BME280;63554;48.940;12.050;2023-07-20T13:10:16;97029.66;;;25.01;30.99
75008;BME280;63554;48.940;12.050;2023-07-20T13:14:20;97016.22;;;25.25;29.58
75008;BME280;63554;48.940;12.050;2023-07-20T13:18:23;97026.66;;;25.63;28.47
75008;BME280;63554;48.940;12.050;2023-07-20T13:22:25;97014.94;;;25.75;28.11
75008;BME280;63554;48.940;12.050;2023-07-20T13:26:28;97015.53;;;26.24;28.26
75008;BME280;63554;48.940;12.050;2023-07-20T13:30:33;97013.66;;;26.55;28.22
75008;BME280;63554;48.940;12.050;2023-07-20T13:34:36;97022.66;;;26.60;27.98
75008;BME280;63554;48.940;12.050;2023-07-20T13:38:41;97008.28;;;26.58;27.99
75008;BME280;63554;48.940;12.050;2023-07-20T13:42:43;97008.56;;;25.75;28.54
75008;BME280;63554;48.940;12.050;2023-07-20T13:46:48;97012.25;;;25.09;29.76
75008;BME280;63554;48.940;12.050;2023-07-20T13:50:51;97001.59;;;24.76;29.28
75008;BME280;63554;48.940;12.050;2023-07-20T13:54:57;96985.75;;;25.43;29.02
75008;BME280;63554;48.940;12.050;2023-07-20T13:59:00;96982.00;;;25.82;28.15
75008;BME280;63554;48.940;12.050;2023-07-20T14:03:04;96985.56;;;26.56;25.88
75008;BME280;63554;48.940;12.050;2023-07-20T14:07:09;96979.50;;;26.72;25.49
75008;BME280;63554;48.940;12.050;2023-07-20T14:11:12;96973.72;;;26.38;26.72
75008;BME280;63554;48.940;12.050;2023-07-20T14:15:18;96979.63;;;26.28;27.05
75008;BME280;63554;48.940;12.050;2023-07-20T14:19:22;96974.47;;;26.56;28.08
75008;BME280;63554;48.940;12.050;2023-07-20T14:23:25;96979.78;;;26.32;28.67
75008;BME280;63554;48.940;12.050;2023-07-20T14:27:28;96980.47;;;26.29;29.14
75008;BME280;63554;48.940;12.050;2023-07-20T14:31:32;96964.50;;;26.94;28.22
75008;BME280;63554;48.940;12.050;2023-07-20T14:35:36;96961.66;;;27.66;26.25
75008;BME280;63554;48.940;12.050;2023-07-20T14:39:39;96948.88;;;28.07;24.99
75008;BME280;63554;48.940;12.050;2023-07-20T14:43:41;96959.72;;;27.24;26.18
75008;BME280;63554;48.940;12.050;2023-07-20T14:47:44;96950.09;;;26.71;26.23
75008;BME280;63554;48.940;12.050;2023-07-20T14:51:48;96949.53;;;27.07;25.99
75008;BME280;63554;48.940;12.050;2023-07-20T14:55:51;96946.28;;;25.63;27.35
75008;BME280;63554;48.940;12.050;2023-07-20T14:59:54;96950.56;;;25.52;28.55
75008;BME280;63554;48.940;12.050;2023-07-20T15:03:57;96939.63;;;25.30;28.34
75008;BME280;63554;48.940;12.050;2023-07-20T15:08:03;96943.53;;;25.37;28.52
75008;BME280;63554;48.940;12.050;2023-07-20T15:12:08;96947.59;;;25.14;28.78
75008;BME280;63554;48.940;12.050;2023-07-20T15:16:11;96937.84;;;25.25;29.45
75008;BME280;63554;48.940;12.050;2023-07-20T15:20:14;96931.53;;;26.15;28.01
75008;BME280;63554;48.940;12.050;2023-07-20T15:24:19;96941.03;;;25.79;27.97
75008;BME280;63554;48.940;12.050;2023-07-20T15:28:22;96938.25;;;26.06;27.15
75008;BME280;63554;48.940;12.050;2023-07-20T15:32:24;96929.50;;;26.72;27.18
75008;BME280;63554;48.940;12.050;2023-07-20T15:36:28;96939.16;;;26.95;26.12
75008;BME280;63554;48.940;12.050;2023-07-20T15:40:32;96921.13;;;26.80;26.69
75008;BME280;63554;48.940;12.050;2023-07-20T15:44:35;96918.47;;;26.54;27.60
75008;BME280;63554;48.940;12.050;2023-07-20T15:48:38;96919.91;;;26.22;27.18
75008;BME280;63554;48.940;12.050;2023-07-20T15:52:43;96911.50;;;26.78;26.94
75008;BME280;63554;48.940;12.050;2023-07-20T15:56:47;96912.63;;;27.49;27.47
75008;BME280;63554;48.940;12.050;2023-07-20T16:00:53;96904.31;;;27.61;26.15
75008;BME280;63554;48.940;12.050;2023-07-20T16:04:56;96907.91;;;27.95;27.37
75008;BME280;63554;48.940;12.050;2023-07-20T16:09:14;96918.84;;;27.25;26.05
75008;BME280;63554;48.940;12.050;2023-07-20T16:13:19;96910.66;;;26.48;27.90
75008;BME280;63554;48.940;12.050;2023-07-20T16:17:21;96908.78;;;26.31;28.10
75008;BME280;63554;48.940;12.050;2023-07-20T16:21:26;96900.31;;;26.57;27.89
75008;BME280;63554;48.940;12.050;2023-07-20T16:25:29;96899.75;;;26.04;28.07
75008;BME280;63554;48.940;12.050;2023-07-20T16:29:33;96897.69;;;25.75;28.71
75008;BME280;63554;48.940;12.050;2023-07-20T16:33:36;96898.19;;;26.33;28.03
75008;BME280;63554;48.940;12.050;2023-07-20T16:37:46;96894.31;;;26.85;28.92
75008;BME280;63554;48.940;12.050;2023-07-20T16:42:09;96895.47;;;27.05;27.96
75008;BME280;63554;48.940;12.050;2023-07-20T16:46:15;96904.91;;;27.33;27.04
75008;BME280;63554;48.940;12.050;2023-07-20T16:50:21;96897.09;;;26.46;28.53
75008;BME280;63554;48.940;12.050;2023-07-20T16:54:23;96894.03;;;26.09;29.18
75008;BME280;63554;48.940;12.050;2023-07-20T16:58:27;96887.13;;;25.68;29.76
75008;BME280;63554;48.940;12.050;2023-07-20T17:02:31;96890.94;;;26.02;29.59
75008;BME280;63554;48.940;12.050;2023-07-20T17:06:34;96889.41;;;25.66;30.38
75008;BME280;63554;48.940;12.050;2023-07-20T17:10:37;96885.00;;;26.21;28.89
75008;BME280;63554;48.940;12.050;2023-07-20T17:14:40;96893.91;;;25.97;28.95
75008;BME280;63554;48.940;12.050;2023-07-20T17:18:44;96890.34;;;26.26;29.11
75008;BME280;63554;48.940;12.050;2023-07-20T17:22:47;96887.16;;;26.45;28.25
75008;BME280;63554;48.940;12.050;2023-07-20T17:26:50;96889.84;;;26.33;28.53
75008;BME280;63554;48.940;12.050;2023-07-20T17:31:13;96888.28;;;26.14;29.93
75008;BME280;63554;48.940;12.050;2023-07-20T17:35:17;96892.69;;;26.15;28.76
75008;BME280;63554;48.940;12.050;2023-07-20T17:39:22;96881.03;;;25.83;28.61
75008;BME280;63554;48.940;12.050;2023-07-20T17:43:45;96889.75;;;25.47;29.43
75008;BME280;63554;48.940;12.050;2023-07-20T17:47:48;96892.88;;;25.37;29.65
75008;BME280;63554;48.940;12.050;2023-07-20T17:51:52;96890.56;;;25.21;29.68
75008;BME280;63554;48.940;12.050;2023-07-20T17:55:55;96897.06;;;24.82;29.56
75008;BME280;63554;48.940;12.050;2023-07-20T17:59:58;96892.13;;;24.61;29.64
75008;BME280;63554;48.940;12.050;2023-07-20T18:04:03;96893.69;;;24.45;30.45
75008;BME280;63554;48.940;12.050;2023-07-20T18:08:10;96894.63;;;24.32;30.77
75008;BME280;63554;48.940;12.050;2023-07-20T18:12:13;96895.34;;;24.06;31.77
75008;BME280;63554;48.940;12.050;2023-07-20T18:16:16;96902.25;;;23.86;31.95
75008;BME280;63554;48.940;12.050;2023-07-20T18:20:18;96902.69;;;23.79;31.98
75008;BME280;63554;48.940;12.050;2023-07-20T18:24:23;96911.69;;;23.62;32.35
75008;BME280;63554;48.940;12.050;2023-07-20T18:28:25;96908.50;;;23.46;32.68
75008;BME280;63554;48.940;12.050;2023-07-20T18:32:29;96899.13;;;23.34;33.01
75008;BME280;63554;48.940;12.050;2023-07-20T18:36:31;96905.00;;;23.18;35.01
75008;BME280;63554;48.940;12.050;2023-07-20T18:40:35;96902.31;;;23.04;35.32
75008;BME280;63554;48.940;12.050;2023-07-20T18:44:38;96909.91;;;22.85;35.52
75008;BME280;63554;48.940;12.050;2023-07-20T18:48:41;96919.66;;;22.68;35.84
75008;BME280;63554;48.940;12.050;2023-07-20T18:52:43;96916.59;;;22.56;35.77
75008;BME280;63554;48.940;12.050;2023-07-20T18:56:47;96906.59;;;22.46;36.31
75008;BME280;63554;48.940;12.050;2023-07-20T19:00:50;96904.03;;;22.36;36.49
75008;BME280;63554;48.940;12.050;2023-07-20T19:04:53;96909.53;;;22.22;36.18
75008;BME280;63554;48.940;12.050;2023-07-20T19:08:56;96912.19;;;22.14;36.77
75008;BME280;63554;48.940;12.050;2023-07-20T19:13:01;96925.22;;;21.94;35.92
75008;BME280;63554;48.940;12.050;2023-07-20T19:17:04;96919.19;;;21.78;36.51
75008;BME280;63554;48.940;12.050;2023-07-20T19:21:08;96925.69;;;21.68;37.02
75008;BME280;63554;48.940;12.050;2023-07-20T19:25:11;96926.41;;;21.60;37.71
75008;BME280;63554;48.940;12.050;2023-07-20T19:29:15;96931.75;;;21.51;37.34
75008;BME280;63554;48.940;12.050;2023-07-20T19:33:18;96933.47;;;21.47;37.67
75008;BME280;63554;48.940;12.050;2023-07-20T19:37:20;96931.31;;;21.44;38.17
75008;BME280;63554;48.940;12.050;2023-07-20T19:41:23;96940.44;;;21.40;38.49
75008;BME280;63554;48.940;12.050;2023-07-20T19:45:27;96940.63;;;21.29;39.20
75008;BME280;63554;48.940;12.050;2023-07-20T19:49:30;96944.34;;;21.20;39.00
75008;BME280;63554;48.940;12.050;2023-07-20T19:53:33;96954.63;;;21.14;39.37
75008;BME280;63554;48.940;12.050;2023-07-20T19:57:36;96962.78;;;21.00;40.31
75008;BME280;63554;48.940;12.050;2023-07-20T20:01:42;96958.16;;;20.77;40.58
75008;BME280;63554;48.940;12.050;2023-07-20T20:05:45;96960.59;;;20.54;40.86
75008;BME280;63554;48.940;12.050;2023-07-20T20:09:48;96961.03;;;20.42;41.39
75008;BME280;63554;48.940;12.050;2023-07-20T20:13:51;96969.41;;;20.32;41.61
75008;BME280;63554;48.940;12.050;2023-07-20T20:17:56;96967.13;;;20.15;42.56
75008;BME280;63554;48.940;12.050;2023-07-20T20:22:01;96967.28;;;20.00;42.43
75008;BME280;63554;48.940;12.050;2023-07-20T20:26:05;96962.41;;;19.91;43.53
75008;BME280;63554;48.940;12.050;2023-07-20T20:30:09;96966.56;;;19.89;43.56
75008;BME280;63554;48.940;12.050;2023-07-20T20:34:13;96969.00;;;19.90;44.13
75008;BME280;63554;48.940;12.050;2023-07-20T20:38:16;96967.59;;;19.93;44.32
75008;BME280;63554;48.940;12.050;2023-07-20T20:42:18;96972.63;;;19.86;44.70
75008;BME280;63554;48.940;12.050;2023-07-20T20:46:21;96970.81;;;19.71;44.99
75008;BME280;63554;48.940;12.050;2023-07-20T20:50:26;96967.63;;;19.59;45.71
75008;BME280;63554;48.940;12.050;2023-07-20T20:54:28;96972.34;;;19.53;45.68
75008;BME280;63554;48.940;12.050;2023-07-20T20:58:31;96981.47;;;19.43;46.59
75008;BME280;63554;48.940;12.050;2023-07-20T21:02:35;96974.47;;;19.27;46.83
75008;BME280;63554;48.940;12.050;2023-07-20T21:06:39;96964.66;;;19.15;46.02
75008;BME280;63554;48.940;12.050;2023-07-20T21:10:43;96967.97;;;19.12;45.17
75008;BME280;63554;48.940;12.050;2023-07-20T21:14:46;96955.09;;;19.08;44.23